createdAt,value
2024-05-09T00:01:25.166Z,102043.16
2024-05-09T00:03:26.782Z,102049.25
2024-05-09T00:05:28.453Z,102048.38
2024-05-09T00:07:30.178Z,102048.38
2024-05-09T00:09:31.765Z,102046.63
2024-05-09T00:11:33.384Z,102043.16
2024-05-09T00:13:35.000Z,102048.38
2024-05-09T00:15:37.163Z,102044.91
2024-05-09T00:17:39.228Z,102043.16
2024-05-09T00:19:41.010Z,102057.94
2024-05-09T00:21:45.604Z,102038.81
2024-05-09T00:23:47.446Z,102042.28
2024-05-09T00:25:49.029Z,102047.53
2024-05-09T00:27:50.575Z,102039.66
2024-05-09T00:29:52.189Z,102046.63
2024-05-09T00:31:54.461Z,102045.78
2024-05-09T00:33:56.385Z,102043.13
2024-05-09T00:35:58.133Z,102044.91
2024-05-09T00:38:00.120Z,102046.63
2024-05-09T00:40:01.743Z,102045.75
2024-05-09T00:42:03.714Z,102043.97
2024-05-09T00:44:05.470Z,102043.06
2024-05-09T00:46:09.961Z,102050.03
2024-05-09T00:48:15.189Z,102045.69
2024-05-09T00:50:25.876Z,102051.78
2024-05-09T00:52:35.710Z,102050.00
2024-05-09T00:54:37.311Z,102050.88
2024-05-09T00:56:40.922Z,102042.16
2024-05-09T00:58:43.350Z,102043.94
2024-05-09T01:00:45.160Z,102044.78
2024-05-09T01:02:47.632Z,102043.03
2024-05-09T01:04:50.179Z,102044.78
2024-05-09T01:06:51.876Z,102049.13
2024-05-09T01:08:53.540Z,102040.41
2024-05-09T01:10:55.442Z,102041.28
2024-05-09T01:12:57.132Z,102043.88
2024-05-09T01:14:58.731Z,102049.13
2024-05-09T01:17:00.503Z,102040.38
2024-05-09T01:19:04.265Z,102043.88
2024-05-09T01:21:08.297Z,102042.97
2024-05-09T01:23:10.547Z,102041.25
2024-05-09T01:25:12.238Z,102042.09
2024-05-09T01:27:13.778Z,102052.53
2024-05-09T01:29:15.545Z,102041.19
2024-05-09T01:31:17.223Z,102039.47
2024-05-09T01:33:18.914Z,102037.72
2024-05-09T01:35:23.526Z,102038.56
2024-05-09T01:37:25.236Z,102040.28
2024-05-09T01:39:26.816Z,102035.06
2024-05-09T01:41:28.545Z,102041.13
2024-05-09T01:43:30.506Z,102044.59
2024-05-09T01:45:32.104Z,102040.25
2024-05-09T01:47:33.796Z,102033.31
2024-05-09T01:49:37.284Z,102034.19
2024-05-09T01:51:38.995Z,102033.31
2024-05-09T01:53:40.707Z,102032.44
2024-05-09T01:55:43.280Z,102025.47
2024-05-09T01:57:45.086Z,102030.69
2024-05-09T01:59:46.614Z,102042.00
2024-05-09T02:01:56.617Z,102036.78
2024-05-09T02:03:59.554Z,102039.38
2024-05-09T02:06:01.419Z,102037.63
2024-05-09T02:08:03.432Z,102032.41
2024-05-09T02:10:13.589Z,102028.91
2024-05-09T02:12:18.279Z,102030.63
2024-05-09T02:14:20.423Z,102028.84
2024-05-09T02:16:21.963Z,102026.25
2024-05-09T02:18:23.829Z,102030.59
2024-05-09T02:20:33.391Z,102028.84
2024-05-09T02:22:37.970Z,102034.06
2024-05-09T02:24:39.527Z,102031.47
2024-05-09T02:26:41.158Z,102023.63
2024-05-09T02:28:42.834Z,102036.66
2024-05-09T02:30:44.490Z,102027.97
2024-05-09T02:32:46.315Z,102034.03
2024-05-09T02:34:48.137Z,102034.03
2024-05-09T02:36:49.907Z,102032.28
2024-05-09T02:38:51.543Z,102036.59
2024-05-09T02:40:53.131Z,102031.34
2024-05-09T02:42:54.782Z,102033.06
2024-05-09T02:44:56.472Z,102035.66
2024-05-09T02:46:58.075Z,102031.28
2024-05-09T02:48:59.745Z,102036.47
2024-05-09T02:51:01.987Z,102032.13
2024-05-09T02:53:03.806Z,102032.09
2024-05-09T02:55:05.886Z,102033.84
2024-05-09T02:57:07.872Z,102032.13
2024-05-09T02:59:09.491Z,102030.38
2024-05-09T03:01:11.213Z,102026.00
2024-05-09T03:03:14.926Z,102035.56
2024-05-09T03:05:17.400Z,102035.53
2024-05-09T03:07:20.372Z,102045.09
2024-05-09T03:09:23.779Z,102028.53
2024-05-09T03:11:26.017Z,102026.81
2024-05-09T03:13:27.650Z,102042.41
2024-05-09T03:15:32.491Z,102025.94
2024-05-09T03:17:34.508Z,102026.75
2024-05-09T03:19:36.680Z,102023.28
2024-05-09T03:21:40.099Z,102025.88
2024-05-09T03:23:42.283Z,102019.78
2024-05-09T03:25:43.908Z,102020.66
2024-05-09T03:27:45.522Z,102020.63
2024-05-09T03:29:47.091Z,102018.03
2024-05-09T03:31:48.956Z,102020.59
2024-05-09T03:33:50.777Z,102021.44
2024-05-09T03:35:52.447Z,102022.31
2024-05-09T03:37:53.976Z,102019.69
2024-05-09T03:39:55.944Z,102019.66
2024-05-09T03:41:57.604Z,102028.31
2024-05-09T03:43:59.167Z,102020.50
2024-05-09T03:46:00.923Z,102016.16
2024-05-09T03:48:02.701Z,102019.63
2024-05-09T03:50:05.834Z,102014.38
2024-05-09T03:52:09.298Z,102024.78
2024-05-09T03:54:10.836Z,102023.88
2024-05-09T03:56:12.605Z,102027.34
2024-05-09T03:58:14.549Z,102026.50
2024-05-09T04:00:22.162Z,102021.22
2024-05-09T04:02:28.385Z,102041.22
2024-05-09T04:04:30.252Z,102019.50
2024-05-09T04:06:32.319Z,102022.09
2024-05-09T04:08:34.069Z,102029.03
2024-05-09T04:10:35.922Z,102024.69
2024-05-09T04:12:38.000Z,102033.41
2024-05-09T04:14:39.783Z,102029.91
2024-05-09T04:16:41.355Z,102019.50
2024-05-09T04:18:43.100Z,102026.44
2024-05-09T04:20:45.057Z,102026.44
2024-05-09T04:22:46.744Z,102029.03
2024-05-09T04:24:48.585Z,102018.66
2024-05-09T04:26:50.155Z,102032.53
2024-05-09T04:28:51.794Z,102027.34
2024-05-09T04:30:53.352Z,102028.19
2024-05-09T04:32:55.092Z,102030.75
2024-05-09T04:34:56.745Z,102031.63
2024-05-09T04:36:58.333Z,102031.63
2024-05-09T04:38:59.953Z,102022.00
2024-05-09T04:41:01.818Z,102022.91
2024-05-09T04:43:07.098Z,102024.66
2024-05-09T04:45:09.079Z,102029.03
2024-05-09T04:47:11.247Z,102036.00
2024-05-09T04:49:13.322Z,102041.22
2024-05-09T04:51:15.048Z,102021.28
2024-05-09T04:53:17.204Z,102026.53
2024-05-09T04:55:19.239Z,102025.69
2024-05-09T04:57:20.860Z,102027.41
2024-05-09T04:59:22.571Z,102020.53
2024-05-09T05:01:24.217Z,102024.06
2024-05-09T05:03:25.960Z,102026.72
2024-05-09T05:05:27.718Z,102028.47
2024-05-09T05:07:29.352Z,102034.59
2024-05-09T05:09:31.145Z,102037.22
2024-05-09T05:11:32.838Z,102032.06
2024-05-09T05:13:36.732Z,102039.06
2024-05-09T05:15:39.497Z,102038.25
2024-05-09T05:17:41.244Z,102036.56
2024-05-09T05:19:43.263Z,102047.91
2024-05-09T05:21:44.847Z,102040.97
2024-05-09T05:23:46.509Z,102041.88
2024-05-09T05:25:53.024Z,102048.91
2024-05-09T05:27:54.923Z,102041.13
2024-05-09T05:29:56.509Z,102037.69
2024-05-09T05:31:58.459Z,102035.09
2024-05-09T05:34:00.142Z,102041.22
2024-05-09T05:36:01.802Z,102041.25
2024-05-09T05:38:03.975Z,102039.53
2024-05-09T05:40:09.401Z,102040.44
2024-05-09T05:42:13.402Z,102044.78
2024-05-09T05:44:15.923Z,102045.69
2024-05-09T05:46:17.814Z,102032.69
2024-05-09T05:48:19.463Z,102038.81
2024-05-09T05:50:27.886Z,102048.38
2024-05-09T05:52:36.721Z,102036.16
2024-05-09T05:54:38.273Z,102040.47
2024-05-09T05:56:39.878Z,102052.66
2024-05-09T05:58:44.232Z,102038.63
2024-05-09T06:00:46.007Z,102043.81
2024-05-09T06:02:47.667Z,102043.75
2024-05-09T06:04:49.377Z,102038.34
2024-05-09T06:06:51.391Z,102047.84
2024-05-09T06:08:53.186Z,102047.69
2024-05-09T06:10:54.906Z,102043.19
2024-05-09T06:12:56.499Z,102050.91
2024-05-09T06:14:58.044Z,102048.09
2024-05-09T06:16:59.667Z,102047.97
2024-05-09T06:19:01.299Z,102048.66
2024-05-09T06:21:03.081Z,102045.91
2024-05-09T06:23:09.019Z,102046.59
2024-05-09T06:25:11.165Z,102050.75
2024-05-09T06:27:12.744Z,102047.94
2024-05-09T06:29:14.417Z,102055.84
2024-05-09T06:31:16.481Z,102044.13
2024-05-09T06:33:18.429Z,102045.66
2024-05-09T06:35:20.142Z,102063.81
2024-05-09T06:37:21.729Z,102045.59
2024-05-09T06:39:24.121Z,102052.47
2024-05-09T06:41:25.963Z,102055.63
2024-05-09T06:43:27.537Z,102054.47
2024-05-09T06:45:29.059Z,102046.44
2024-05-09T06:47:30.790Z,102045.34
2024-05-09T06:49:33.028Z,102051.41
2024-05-09T06:51:38.272Z,102048.31
2024-05-09T06:53:40.613Z,102054.16
2024-05-09T06:55:42.820Z,102048.53
2024-05-09T06:57:44.423Z,102049.16
2024-05-09T06:59:45.923Z,102050.53
2024-05-09T07:01:47.630Z,102053.41
2024-05-09T07:03:49.270Z,102052.28
2024-05-09T07:05:51.022Z,102056.41
2024-05-09T07:07:52.642Z,102058.19
2024-05-09T07:09:54.294Z,102055.78
2024-05-09T07:11:56.047Z,102054.53
2024-05-09T07:13:57.694Z,102057.81
2024-05-09T07:15:59.966Z,102052.94
2024-05-09T07:18:01.818Z,102052.25
2024-05-09T07:20:06.725Z,102058.06
2024-05-09T07:22:08.480Z,102055.91
2024-05-09T07:24:10.144Z,102056.81
2024-05-09T07:26:11.741Z,102060.66
2024-05-09T07:28:15.736Z,102060.63
2024-05-09T07:30:23.840Z,102060.97
2024-05-09T07:32:32.425Z,102062.13
2024-05-09T07:34:34.280Z,102052.94
2024-05-09T07:36:35.917Z,102057.50
2024-05-09T07:38:37.592Z,102060.25
2024-05-09T07:40:40.857Z,102059.50
2024-05-09T07:42:42.814Z,102044.97
2024-05-09T07:44:44.440Z,102059.97
2024-05-09T07:47:48.464Z,102051.72
2024-05-09T07:53:37.882Z,102046.16
2024-05-09T07:55:38.183Z,102047.22
2024-05-09T07:57:39.879Z,102049.41
2024-05-09T07:59:41.515Z,102051.88
2024-05-09T08:01:43.260Z,102048.50
2024-05-09T08:03:45.436Z,102045.41
2024-05-09T08:05:47.264Z,102048.03
2024-05-09T08:07:48.906Z,102052.28
2024-05-09T08:09:50.474Z,102050.84
2024-05-09T08:11:55.205Z,102050.09
2024-05-09T08:13:56.750Z,102044.38
2024-05-09T08:15:58.345Z,102040.16
2024-05-09T08:18:00.183Z,102045.47
2024-05-09T08:20:03.672Z,102037.03
2024-05-09T08:22:07.366Z,102042.88
2024-05-09T08:24:10.450Z,102046.81
2024-05-09T08:26:12.364Z,102042.84
2024-05-09T08:28:15.247Z,102038.16
2024-05-09T08:30:24.635Z,102037.38
2024-05-09T08:32:32.425Z,102045.34
2024-05-09T08:34:34.207Z,102038.16
2024-05-09T08:36:35.902Z,102049.88
2024-05-09T08:38:37.479Z,102051.00
2024-05-09T08:40:39.322Z,102045.13
2024-05-09T08:42:49.509Z,102048.22
2024-05-09T08:44:52.101Z,102037.94
2024-05-09T08:46:53.846Z,102044.59
2024-05-09T08:48:57.343Z,102036.84
2024-05-09T08:50:59.528Z,102037.69
2024-05-09T08:53:01.183Z,102033.97
2024-05-09T08:55:03.846Z,102032.63
2024-05-09T08:57:07.015Z,102030.53
2024-05-09T08:59:13.540Z,102025.31
2024-05-09T09:01:16.328Z,102028.00
2024-05-09T09:03:19.912Z,102029.06
2024-05-09T09:05:25.859Z,102037.84
2024-05-09T09:07:29.922Z,102028.59
2024-05-09T09:09:32.900Z,102028.09
2024-05-09T09:11:34.652Z,102030.91
2024-05-09T09:13:36.817Z,102037.53
2024-05-09T09:15:48.385Z,102031.19
2024-05-09T09:18:00.720Z,102027.88
2024-05-09T09:20:03.057Z,102029.88
2024-05-09T09:22:05.292Z,102032.94
2024-05-09T09:24:10.000Z,102039.13
2024-05-09T09:28:17.655Z,102033.19
2024-05-09T09:30:31.518Z,102031.47
2024-05-09T09:32:38.526Z,102028.41
2024-05-09T09:34:41.579Z,102022.97
2024-05-09T09:36:44.443Z,102023.75
2024-05-09T09:38:47.430Z,102017.91
2024-05-09T09:40:51.031Z,102021.44
2024-05-09T09:42:57.763Z,102017.59
2024-05-09T09:45:04.842Z,102018.31
2024-05-09T09:47:08.596Z,102014.19
2024-05-09T09:49:10.356Z,102007.53
2024-05-09T09:51:13.820Z,102010.00
2024-05-09T09:53:16.682Z,102014.22
2024-05-09T09:55:18.788Z,102015.25
2024-05-09T09:57:21.438Z,102021.19
2024-05-09T09:59:23.184Z,102019.59
2024-05-09T10:01:25.046Z,102010.13
2024-05-09T10:03:27.273Z,102010.03
2024-05-09T10:05:30.138Z,102009.59
2024-05-09T10:07:33.438Z,102007.63
2024-05-09T10:09:35.620Z,101998.75
2024-05-09T10:11:42.006Z,101998.75
2024-05-09T10:13:47.403Z,101997.63
2024-05-09T10:15:53.760Z,101997.53
2024-05-09T10:18:06.698Z,101992.28
2024-05-09T10:20:14.906Z,101992.16
2024-05-09T10:22:30.917Z,101997.03
2024-05-09T10:24:53.203Z,101984.13
2024-05-09T10:26:54.938Z,101979.81
2024-05-09T10:28:58.700Z,101983.53
2024-05-09T10:31:10.776Z,101981.41
2024-05-09T10:33:12.544Z,101975.59
2024-05-09T10:35:19.247Z,101965.63
2024-05-09T10:37:22.092Z,101973.38
2024-05-09T10:39:25.578Z,101970.00
2024-05-09T10:41:27.191Z,101966.38
2024-05-09T10:43:31.228Z,101958.88
2024-05-09T10:45:35.038Z,101961.75
2024-05-09T10:47:36.967Z,101960.69
2024-05-09T10:49:39.342Z,101953.38
2024-05-09T10:51:44.461Z,101952.44
2024-05-09T10:53:47.818Z,101952.94
2024-05-09T10:55:59.714Z,101957.00
2024-05-09T10:58:01.323Z,101947.38
2024-05-09T11:00:03.127Z,101947.72
2024-05-09T11:02:07.996Z,101946.53
2024-05-09T11:04:09.932Z,101948.50
2024-05-09T11:06:11.937Z,101951.59
2024-05-09T11:08:13.713Z,101946.88
2024-05-09T11:10:21.003Z,101948.91
2024-05-09T11:12:29.096Z,101945.41
2024-05-09T11:14:30.714Z,101941.38
2024-05-09T11:16:32.787Z,101940.69
2024-05-09T11:18:38.093Z,101941.88
2024-05-09T11:20:40.976Z,101941.22
2024-05-09T11:22:42.748Z,101939.78
2024-05-09T11:24:44.508Z,101932.88
2024-05-09T11:26:46.136Z,101936.31
2024-05-09T11:28:48.148Z,101932.19
2024-05-09T11:30:50.870Z,101931.06
2024-05-09T11:32:53.371Z,101931.78
2024-05-09T11:34:55.013Z,101919.88
2024-05-09T11:36:56.756Z,101928.25
2024-05-09T11:38:58.349Z,101918.50
2024-05-09T11:40:59.977Z,101919.06
2024-05-09T11:43:01.781Z,101912.59
2024-05-09T11:45:03.915Z,101914.84
2024-05-09T11:47:05.918Z,101903.00
2024-05-09T11:49:09.313Z,101911.97
2024-05-09T11:51:11.123Z,101908.00
2024-05-09T11:53:12.734Z,101907.09
2024-05-09T11:55:14.703Z,101902.75
2024-05-09T11:57:16.443Z,101899.56
2024-05-09T11:59:18.044Z,101886.72
2024-05-09T12:01:20.337Z,101894.28
2024-05-09T12:03:22.891Z,101887.19
2024-05-09T12:05:25.487Z,101891.84
2024-05-09T12:07:27.172Z,101887.41
2024-05-09T12:09:29.102Z,101882.75
2024-05-09T12:11:30.902Z,101883.38
2024-05-09T12:13:32.649Z,101892.28
2024-05-09T12:15:38.306Z,101880.06
2024-05-09T12:17:40.758Z,101877.72
2024-05-09T12:19:42.803Z,101886.03
2024-05-09T12:21:44.385Z,101878.84
2024-05-09T12:23:46.397Z,101873.09
2024-05-09T12:25:48.034Z,101868.41
2024-05-09T12:27:49.714Z,101868.59
2024-05-09T12:29:51.337Z,101866.13
2024-05-09T12:31:53.029Z,101869.53
2024-05-09T12:33:54.906Z,101862.38
2024-05-09T12:35:56.642Z,101862.94
2024-05-09T12:37:58.303Z,101858.56
2024-05-09T12:39:59.900Z,101857.78
2024-05-09T12:42:01.717Z,101862.00
2024-05-09T12:44:03.289Z,101861.34
2024-05-09T12:46:05.042Z,101856.19
2024-05-09T12:48:11.754Z,101862.00
2024-05-09T12:50:21.964Z,101849.75
2024-05-09T12:52:26.917Z,101844.44
2024-05-09T12:54:28.614Z,101844.00
2024-05-09T12:56:30.213Z,101843.19
2024-05-09T12:58:31.818Z,101844.75
2024-05-09T13:00:34.455Z,101843.16
2024-05-09T13:02:36.450Z,101839.19
2024-05-09T13:04:38.388Z,101838.47
2024-05-09T13:06:40.175Z,101838.84
2024-05-09T13:08:41.895Z,101835.88
2024-05-09T13:10:43.647Z,101828.28
2024-05-09T13:12:45.289Z,101827.72
2024-05-09T13:14:47.061Z,101830.78
2024-05-09T13:16:48.748Z,101830.66
2024-05-09T13:18:50.689Z,101834.31
2024-05-09T13:20:52.484Z,101831.97
2024-05-09T13:22:54.269Z,101827.44
2024-05-09T13:24:55.856Z,101817.81
2024-05-09T13:26:57.530Z,101820.94
2024-05-09T13:28:59.067Z,101813.50
2024-05-09T13:31:00.717Z,101812.25
2024-05-09T13:33:02.495Z,101814.56
2024-05-09T13:35:04.644Z,101807.13
2024-05-09T13:37:06.420Z,101811.03
2024-05-09T13:39:08.134Z,101810.09
2024-05-09T13:41:11.520Z,101805.91
2024-05-09T13:43:14.035Z,101813.03
2024-05-09T13:45:15.677Z,101810.78
2024-05-09T13:47:17.558Z,101809.47
2024-05-09T13:49:19.349Z,101809.22
2024-05-09T13:51:20.992Z,101803.31
2024-05-09T13:53:22.613Z,101799.50
2024-05-09T13:55:24.300Z,101801.41
2024-05-09T13:57:26.633Z,101799.69
2024-05-09T13:59:28.284Z,101792.97
2024-05-09T14:01:33.368Z,101792.41
2024-05-09T14:03:35.136Z,101793.72
2024-05-09T14:05:36.959Z,101792.41
2024-05-09T14:07:38.651Z,101784.31
2024-05-09T14:09:40.233Z,101784.75
2024-05-09T14:11:42.101Z,101786.97
2024-05-09T14:13:43.850Z,101779.75
2024-05-09T14:15:46.365Z,101778.13
2024-05-09T14:17:48.343Z,101775.66
2024-05-09T14:19:49.986Z,101773.56
2024-05-09T14:21:51.556Z,101772.34
2024-05-09T14:23:54.338Z,101778.56
2024-05-09T14:25:56.458Z,101770.97
2024-05-09T14:27:58.513Z,101773.03
2024-05-09T14:30:00.205Z,101767.41
2024-05-09T14:32:02.941Z,101770.91
2024-05-09T14:34:04.737Z,101770.06
2024-05-09T14:36:06.777Z,101772.31
2024-05-09T14:38:09.838Z,101764.91
2024-05-09T14:40:25.970Z,101760.41
2024-05-09T14:42:33.104Z,101762.63
2024-05-09T14:44:34.677Z,101750.63
2024-05-09T14:46:36.323Z,101753.78
2024-05-09T14:48:38.120Z,101744.25
2024-05-09T14:50:40.900Z,101752.63
2024-05-09T14:52:42.783Z,101747.47
2024-05-09T14:54:44.439Z,101743.88
2024-05-09T14:56:46.143Z,101743.75
2024-05-09T14:58:47.824Z,101735.78
2024-05-09T15:00:51.269Z,101733.53
2024-05-09T15:02:54.866Z,101732.50
2024-05-09T15:04:56.476Z,101731.88
2024-05-09T15:06:59.812Z,101726.72
2024-05-09T15:09:01.897Z,101725.16
2024-05-09T15:11:03.702Z,101728.41
2024-05-09T15:13:07.800Z,101720.88
2024-05-09T15:15:11.034Z,101727.25
2024-05-09T15:17:13.038Z,101721.38
2024-05-09T15:19:14.846Z,101719.50
2024-05-09T15:21:16.546Z,101721.44
2024-05-09T15:23:18.244Z,101716.06
2024-05-09T15:25:19.899Z,101712.69
2024-05-09T15:27:21.898Z,101712.47
2024-05-09T15:29:23.433Z,101711.31
2024-05-09T15:31:25.167Z,101711.16
2024-05-09T15:33:27.967Z,101708.44
2024-05-09T15:35:29.605Z,101708.94
2024-05-09T15:37:31.718Z,101701.91
2024-05-09T15:39:33.399Z,101710.16
2024-05-09T15:41:35.100Z,101699.34
2024-05-09T15:43:36.690Z,101709.13
2024-05-09T15:45:38.591Z,101705.22
2024-05-09T15:47:40.343Z,101701.84
2024-05-09T15:49:42.350Z,101702.56
2024-05-09T15:51:44.093Z,101701.84
2024-05-09T15:53:45.708Z,101706.56
2024-05-09T15:55:47.243Z,101696.56
2024-05-09T15:57:48.875Z,101699.13
2024-05-09T15:59:50.949Z,101700.50
2024-05-09T16:01:52.560Z,101696.00
2024-05-09T16:03:54.614Z,101686.88
2024-05-09T16:05:57.643Z,101688.53
2024-05-09T16:07:59.573Z,101690.28
2024-05-09T16:10:01.359Z,101683.75
2024-05-09T16:12:03.090Z,101685.03
2024-05-09T16:14:04.988Z,101678.06
2024-05-09T16:16:06.813Z,101674.03
2024-05-09T16:18:08.723Z,101683.00
2024-05-09T16:20:14.998Z,101677.22
2024-05-09T16:22:19.988Z,101677.16
2024-05-09T16:24:21.672Z,101680.59
2024-05-09T16:26:23.308Z,101680.66
2024-05-09T16:28:26.936Z,101680.91
2024-05-09T16:30:34.715Z,101674.03
2024-05-09T16:32:40.792Z,101681.34
2024-05-09T16:34:42.498Z,101679.78
2024-05-09T16:36:44.476Z,101672.50
2024-05-09T16:38:46.052Z,101668.59
2024-05-09T16:40:47.977Z,101675.63
2024-05-09T16:42:49.678Z,101673.91
2024-05-09T16:44:51.284Z,101675.84
2024-05-09T16:46:53.169Z,101673.19
2024-05-09T16:48:55.131Z,101674.38
2024-05-09T16:50:56.873Z,101679.69
2024-05-09T16:52:58.864Z,101662.81
2024-05-09T16:55:00.585Z,101665.63
2024-05-09T16:57:02.735Z,101666.56
2024-05-09T16:59:04.398Z,101673.06
2024-05-09T17:01:06.021Z,101671.09
2024-05-09T17:03:09.651Z,101671.72
2024-05-09T17:05:11.790Z,101668.63
2024-05-09T17:07:13.691Z,101665.84
2024-05-09T17:09:18.019Z,101665.63
2024-05-09T17:11:21.074Z,101668.19
2024-05-09T17:13:23.012Z,101669.91
2024-05-09T17:15:24.775Z,101666.47
2024-05-09T17:17:26.673Z,101672.66
2024-05-09T17:19:29.253Z,101670.94
2024-05-09T17:21:30.832Z,101665.78
2024-05-09T17:23:34.689Z,101667.91
2024-05-09T17:25:36.533Z,101665.22
2024-05-09T17:27:38.176Z,101665.22
2024-05-09T17:29:39.932Z,101663.53
2024-05-09T17:31:41.509Z,101669.78
2024-05-09T17:33:43.303Z,101671.31
2024-05-09T17:35:46.230Z,101660.81
2024-05-09T17:37:47.894Z,101661.75
2024-05-09T17:39:49.504Z,101658.66
2024-05-09T17:41:51.160Z,101656.09
2024-05-09T17:43:52.725Z,101652.53
2024-05-09T17:45:56.244Z,101659.53
2024-05-09T17:47:58.349Z,101656.25
2024-05-09T17:50:00.394Z,101655.31
2024-05-09T17:52:02.021Z,101659.25
2024-05-09T17:54:03.733Z,101653.88
2024-05-09T17:56:08.701Z,101652.97
2024-05-09T17:58:12.683Z,101652.56
2024-05-09T18:00:17.485Z,101645.41
2024-05-09T18:02:23.110Z,101659.72
2024-05-09T18:04:24.924Z,101653.00
2024-05-09T18:06:26.667Z,101661.09
2024-05-09T18:08:28.209Z,101660.38
2024-05-09T18:10:35.860Z,101662.38
2024-05-09T18:12:40.438Z,101664.38
2024-05-09T18:14:42.089Z,101661.88
2024-05-09T18:16:43.662Z,101657.88
2024-05-09T18:18:45.550Z,101664.91
2024-05-09T18:20:47.632Z,101658.03
2024-05-09T18:22:49.187Z,101659.03
2024-05-09T18:24:50.805Z,101658.28
2024-05-09T18:26:52.432Z,101648.81
2024-05-09T18:28:54.063Z,101652.72
2024-05-09T18:30:55.779Z,101650.34
2024-05-09T18:32:57.572Z,101662.78
2024-05-09T18:34:59.333Z,101660.31
2024-05-09T18:37:02.988Z,101659.75
2024-05-09T18:39:06.695Z,101661.81
2024-05-09T18:41:08.416Z,101659.25
2024-05-09T18:43:10.170Z,101669.22
2024-05-09T18:45:12.043Z,101667.50
2024-05-09T18:47:15.995Z,101667.59
2024-05-09T18:49:18.732Z,101653.81
2024-05-09T18:51:21.069Z,101660.28
2024-05-09T18:53:22.660Z,101663.06
2024-05-09T18:55:24.198Z,101657.00
2024-05-09T18:57:26.065Z,101665.16
2024-05-09T18:59:27.568Z,101666.16
2024-05-09T19:01:29.328Z,101663.78
2024-05-09T19:03:31.246Z,101666.72
2024-05-09T19:05:33.414Z,101667.91
2024-05-09T19:07:35.214Z,101677.78
2024-05-09T19:09:36.868Z,101677.13
2024-05-09T19:11:40.175Z,101676.50
2024-05-09T19:13:41.838Z,101678.50
2024-05-09T19:15:44.156Z,101693.56
2024-05-09T19:17:48.290Z,101680.47
2024-05-09T19:19:52.307Z,101682.41
2024-05-09T19:21:54.119Z,101693.22
2024-05-09T19:23:55.867Z,101690.78
2024-05-09T19:25:57.889Z,101687.41
2024-05-09T19:27:59.935Z,101681.44
2024-05-09T19:30:01.580Z,101684.31
2024-05-09T19:32:03.371Z,101693.25
2024-05-09T19:34:05.106Z,101693.38
2024-05-09T19:36:07.133Z,101695.34
2024-05-09T19:38:08.921Z,101693.78
2024-05-09T19:40:18.120Z,101693.00
2024-05-09T19:42:27.601Z,101695.88
2024-05-09T19:44:29.206Z,101698.66
2024-05-09T19:46:30.828Z,101698.06
2024-05-09T19:48:32.729Z,101696.44
2024-05-09T19:50:41.173Z,101705.38
2024-05-09T19:52:45.602Z,101703.81
2024-05-09T19:54:49.934Z,101705.66
2024-05-09T19:56:51.640Z,101698.72
2024-05-09T19:58:53.357Z,101700.59
2024-05-09T20:00:55.162Z,101693.69
2024-05-09T20:02:56.955Z,101699.19
2024-05-09T20:04:58.745Z,101697.53
2024-05-09T20:07:00.390Z,101695.97
2024-05-09T20:09:02.081Z,101698.81
2024-05-09T20:11:03.719Z,101708.66
2024-05-09T20:13:07.201Z,101705.34
2024-05-09T20:15:09.419Z,101716.00
2024-05-09T20:17:11.035Z,101705.56
2024-05-09T20:19:12.865Z,101711.13
2024-05-09T20:21:14.564Z,101714.81
2024-05-09T20:23:16.635Z,101714.06
2024-05-09T20:25:18.282Z,101714.28
2024-05-09T20:27:19.873Z,101717.09
2024-05-09T20:29:21.407Z,101714.50
2024-05-09T20:31:23.107Z,101718.16
2024-05-09T20:33:24.784Z,101718.25
2024-05-09T20:35:26.765Z,101721.06
2024-05-09T20:37:28.427Z,101717.66
2024-05-09T20:39:29.993Z,101721.19
2024-05-09T20:41:33.606Z,101730.09
2024-05-09T20:43:35.235Z,101728.47
2024-05-09T20:45:37.012Z,101726.84
2024-05-09T20:47:38.758Z,101724.25
2024-05-09T20:49:40.538Z,101721.75
2024-05-09T20:51:42.274Z,101725.34
2024-05-09T20:53:43.886Z,101721.19
2024-05-09T20:55:45.875Z,101720.38
2024-05-09T20:57:47.542Z,101715.19
2024-05-09T20:59:49.163Z,101716.16
2024-05-09T21:01:50.752Z,101719.72
2024-05-09T21:03:52.594Z,101714.56
2024-05-09T21:05:54.316Z,101717.16
2024-05-09T21:07:56.491Z,101710.25
2024-05-09T21:09:58.038Z,101715.59
2024-05-09T21:11:59.610Z,101710.38
2024-05-09T21:14:01.219Z,101706.19
2024-05-09T21:16:02.909Z,101715.91
2024-05-09T21:18:05.234Z,101710.72
2024-05-09T21:20:11.696Z,101720.34
2024-05-09T21:22:18.806Z,101723.13
2024-05-09T21:24:20.517Z,101723.22
2024-05-09T21:26:23.886Z,101711.91
2024-05-09T21:28:25.709Z,101718.03
2024-05-09T21:30:36.897Z,101712.06
2024-05-09T21:32:42.674Z,101711.16
2024-05-09T21:34:44.377Z,101726.94
2024-05-09T21:36:46.088Z,101719.94
2024-05-09T21:38:47.754Z,101724.38
2024-05-09T21:40:49.349Z,101717.47
2024-05-09T21:42:50.953Z,101715.81
2024-05-09T21:44:52.610Z,101716.72
2024-05-09T21:46:54.374Z,101715.00
2024-05-09T21:48:56.011Z,101711.50
2024-05-09T21:50:57.733Z,101715.91
2024-05-09T21:52:59.337Z,101708.06
2024-05-09T21:55:01.013Z,101712.53
2024-05-09T21:57:03.744Z,101716.91
2024-05-09T21:59:05.440Z,101706.47
2024-05-09T22:01:07.310Z,101707.44
2024-05-09T22:03:10.703Z,101705.75
2024-05-09T22:05:13.844Z,101712.78
2024-05-09T22:07:15.815Z,101706.72
2024-05-09T22:09:17.427Z,101703.28
2024-05-09T22:11:19.042Z,101708.59
2024-05-09T22:13:20.781Z,101711.28
2024-05-09T22:15:22.361Z,101711.38
2024-05-09T22:17:24.134Z,101707.84
2024-05-09T22:19:25.944Z,101710.56
2024-05-09T22:21:27.541Z,101715.81
2024-05-09T22:23:29.144Z,101714.13
2024-05-09T22:25:31.722Z,101715.03
2024-05-09T22:27:34.043Z,101713.38
2024-05-09T22:29:35.608Z,101717.81
2024-05-09T22:31:37.193Z,101717.97
2024-05-09T22:33:38.921Z,101721.56
2024-05-09T22:35:42.097Z,101706.75
2024-05-09T22:37:43.691Z,101712.97
2024-05-09T22:39:45.259Z,101706.03
2024-05-09T22:41:46.887Z,101706.16
2024-05-09T22:43:48.434Z,101712.34
2024-05-09T22:45:50.293Z,101703.69
2024-05-09T22:47:52.215Z,101715.19
2024-05-09T22:49:53.942Z,101706.56
2024-05-09T22:51:55.554Z,101706.63
2024-05-09T22:53:57.093Z,101700.63
2024-05-09T22:55:58.650Z,101705.09
2024-05-09T22:58:00.285Z,101707.78
2024-05-09T23:00:01.938Z,101709.63
2024-05-09T23:02:03.914Z,101715.81
2024-05-09T23:04:05.836Z,101708.88
2024-05-09T23:06:07.868Z,101708.13
2024-05-09T23:08:10.443Z,101709.13
2024-05-09T23:10:17.300Z,101708.28
2024-05-09T23:12:26.237Z,101718.00
2024-05-09T23:14:27.933Z,101704.13
2024-05-09T23:16:29.680Z,101707.69
2024-05-09T23:18:31.420Z,101701.59
2024-05-09T23:20:37.983Z,101706.88
2024-05-09T23:22:41.452Z,101717.44
2024-05-09T23:24:43.151Z,101697.41
2024-05-09T23:26:44.786Z,101712.28